createdAt,value
2023-04-20T00:00:09.161Z,1238.00
2023-04-20T00:01:09.216Z,1234.00
2023-04-20T00:02:09.299Z,1226.00
2023-04-20T00:03:09.434Z,1236.00
2023-04-20T00:04:09.332Z,1223.00
2023-04-20T00:05:09.416Z,1240.00
2023-04-20T00:06:09.419Z,1214.00
2023-04-20T00:07:09.433Z,1217.00
2023-04-20T00:08:09.496Z,1219.00
2023-04-20T00:09:09.533Z,1206.00
2023-04-20T00:10:09.558Z,1220.00
2023-04-20T00:11:09.584Z,1210.00
2023-04-20T00:12:09.635Z,1211.00
2023-04-20T00:13:09.697Z,1203.00
2023-04-20T00:14:09.748Z,1197.00
2023-04-20T00:15:09.774Z,1198.00
2023-04-20T00:16:09.834Z,1206.00
2023-04-20T00:17:09.862Z,1198.00
2023-04-20T00:18:09.887Z,1188.00
2023-04-20T00:19:10.114Z,1200.00
2023-04-20T00:20:10.033Z,1188.00
2023-04-20T00:21:10.014Z,1200.00
2023-04-20T00:22:10.025Z,1182.00
2023-04-20T00:23:10.087Z,1197.00
2023-04-20T00:24:10.110Z,1182.00
2023-04-20T00:25:10.135Z,1188.00
2023-04-20T00:26:10.266Z,1168.00
2023-04-20T00:27:10.208Z,1185.00
2023-04-20T00:28:10.266Z,1174.00
2023-04-20T00:29:10.287Z,1179.00
2023-04-20T00:30:10.362Z,1190.00
2023-04-20T00:31:10.419Z,1169.00
2023-04-20T00:32:10.382Z,1181.00
2023-04-20T00:33:10.423Z,1174.00
2023-04-20T00:34:10.492Z,1187.00
2023-04-20T00:35:10.535Z,1180.00
2023-04-20T00:36:10.536Z,1173.00
2023-04-20T00:37:10.593Z,1162.00
2023-04-20T00:38:10.639Z,1159.00
2023-04-20T00:39:10.626Z,1158.00
2023-04-20T00:40:10.667Z,1163.00
2023-04-20T00:41:10.733Z,1172.00
2023-04-20T00:42:10.773Z,1154.00
2023-04-20T00:43:10.807Z,1145.00
2023-04-20T00:44:10.798Z,1151.00
2023-04-20T00:45:10.857Z,1130.00
2023-04-20T00:46:10.918Z,1147.00
2023-04-20T00:47:10.920Z,1133.00
2023-04-20T00:48:10.938Z,1151.00
2023-04-20T00:49:11.047Z,1156.00
2023-04-20T00:50:11.054Z,1137.00
2023-04-20T00:51:11.104Z,1142.00
2023-04-20T00:52:11.123Z,1137.00
2023-04-20T00:53:11.158Z,1137.00
2023-04-20T00:54:11.192Z,1127.00
2023-04-20T00:55:11.270Z,1123.00
2023-04-20T00:56:11.300Z,1138.00
2023-04-20T00:57:11.333Z,1135.00
2023-04-20T00:58:11.382Z,1133.00
2023-04-20T00:59:11.433Z,1124.00
2023-04-20T01:00:11.481Z,1125.00
2023-04-20T01:01:11.554Z,1122.00
2023-04-20T01:02:11.591Z,1126.00
2023-04-20T01:03:11.699Z,1122.00
2023-04-20T01:04:11.762Z,1114.00
2023-04-20T01:05:11.706Z,1100.00
2023-04-20T01:06:11.713Z,1117.00
2023-04-20T01:07:11.764Z,1114.00
2023-04-20T01:08:11.791Z,1108.00
2023-04-20T01:09:11.826Z,1124.00
2023-04-20T01:10:11.889Z,1098.00
2023-04-20T01:11:11.926Z,1124.00
2023-04-20T01:12:11.950Z,1115.00
2023-04-20T01:13:12.013Z,1094.00
2023-04-20T01:14:12.054Z,1091.00
2023-04-20T01:15:12.069Z,1108.00
2023-04-20T01:16:12.206Z,1095.00
2023-04-20T01:17:12.135Z,1112.00
2023-04-20T01:18:12.201Z,1085.00
2023-04-20T01:19:12.253Z,1088.00
2023-04-20T01:20:12.305Z,1096.00
2023-04-20T01:21:12.316Z,1084.00
2023-04-20T01:22:12.408Z,1088.00
2023-04-20T01:23:12.411Z,1089.00
2023-04-20T01:24:12.463Z,1105.00
2023-04-20T01:25:12.509Z,1099.00
2023-04-20T01:26:12.569Z,1095.00
2023-04-20T01:27:12.592Z,1090.00
2023-04-20T01:28:12.631Z,1070.00
2023-04-20T01:29:12.719Z,1080.00
2023-04-20T01:30:12.719Z,1074.00
2023-04-20T01:31:12.793Z,1076.00
2023-04-20T01:32:12.774Z,1085.00
2023-04-20T01:33:12.818Z,1059.00
2023-04-20T01:34:12.839Z,1064.00
2023-04-20T01:35:12.880Z,1069.00
2023-04-20T01:36:12.920Z,1083.00
2023-04-20T01:37:12.963Z,1066.00
2023-04-20T01:38:13.000Z,1063.00
2023-04-20T01:39:13.041Z,1056.00
2023-04-20T01:40:13.079Z,1053.00
2023-04-20T01:41:13.119Z,1061.00
2023-04-20T01:42:13.131Z,1060.00
2023-04-20T01:43:13.187Z,1049.00
2023-04-20T01:44:13.225Z,1054.00
2023-04-20T01:45:13.281Z,1062.00
2023-04-20T01:46:13.331Z,1053.00
2023-04-20T01:47:13.379Z,1057.00
2023-04-20T01:48:13.409Z,1049.00
2023-04-20T01:49:13.461Z,1035.00
2023-04-20T01:50:13.512Z,1053.00
2023-04-20T01:51:13.514Z,1053.00
2023-04-20T01:52:13.608Z,1046.00
2023-04-20T01:53:13.697Z,1051.00
2023-04-20T01:54:13.685Z,1036.00
2023-04-20T01:55:13.756Z,1044.00
2023-04-20T01:56:13.762Z,1033.00
2023-04-20T01:57:13.812Z,1045.00
2023-04-20T01:58:13.829Z,1032.00
2023-04-20T01:59:13.908Z,1036.00
2023-04-20T02:00:13.923Z,1029.00
2023-04-20T02:01:14.120Z,1039.00
2023-04-20T02:02:14.072Z,1037.00
2023-04-20T02:03:14.143Z,1018.00
2023-04-20T02:04:14.153Z,1031.00
2023-04-20T02:05:14.148Z,1024.00
2023-04-20T02:06:14.192Z,1001.00
2023-04-20T02:07:14.241Z,1016.00
2023-04-20T02:08:14.274Z,1022.00
2023-04-20T02:09:14.290Z,1002.00
2023-04-20T02:10:14.320Z,1003.00
2023-04-20T02:11:14.358Z,1012.00
2023-04-20T02:12:14.374Z,998.00
2023-04-20T02:13:14.440Z,1000.00
2023-04-20T02:14:14.423Z,1002.00
2023-04-20T02:15:14.453Z,998.00
2023-04-20T02:16:14.488Z,985.00
2023-04-20T02:17:14.660Z,994.00
2023-04-20T02:18:14.525Z,995.00
2023-04-20T02:19:14.553Z,977.00
2023-04-20T02:20:14.576Z,990.00
2023-04-20T02:21:14.540Z,974.00
2023-04-20T02:22:14.554Z,971.00
2023-04-20T02:23:14.570Z,964.00
2023-04-20T02:24:14.574Z,957.00
2023-04-20T02:25:14.573Z,966.00
2023-04-20T02:26:14.589Z,963.00
2023-04-20T02:27:14.621Z,940.00
2023-04-20T02:28:14.604Z,944.00
2023-04-20T02:29:14.625Z,943.00
2023-04-20T02:30:14.626Z,927.00
2023-04-20T02:31:14.657Z,941.00
2023-04-20T02:32:14.620Z,937.00
2023-04-20T02:33:14.661Z,930.00
2023-04-20T02:34:14.666Z,929.00
2023-04-20T02:35:14.640Z,920.00
2023-04-20T02:36:14.661Z,919.00
2023-04-20T02:37:14.646Z,910.00
2023-04-20T02:38:14.659Z,917.00
2023-04-20T02:39:14.641Z,905.00
2023-04-20T02:40:14.693Z,919.00
2023-04-20T02:41:14.741Z,905.00
2023-04-20T02:42:14.747Z,898.00
2023-04-20T02:43:14.755Z,899.00
2023-04-20T02:44:14.794Z,893.00
2023-04-20T02:45:14.913Z,882.00
2023-04-20T02:46:14.972Z,888.00
2023-04-20T02:47:15.030Z,877.00
2023-04-20T02:48:15.111Z,881.00
2023-04-20T02:49:15.300Z,896.00
2023-04-20T02:50:15.228Z,888.00
2023-04-20T02:51:15.305Z,877.00
2023-04-20T02:52:15.348Z,882.00
2023-04-20T02:53:15.393Z,860.00
2023-04-20T02:54:15.456Z,879.00
2023-04-20T02:55:15.465Z,875.00
2023-04-20T02:56:15.478Z,857.00
2023-04-20T02:57:15.542Z,854.00
2023-04-20T02:58:15.603Z,852.00
2023-04-20T02:59:15.786Z,848.00
2023-04-20T03:00:15.680Z,847.00
2023-04-20T03:01:15.735Z,855.00
2023-04-20T03:02:15.905Z,837.00
2023-04-20T03:03:15.982Z,861.00
2023-04-20T03:04:16.117Z,833.00
2023-04-20T03:05:16.022Z,853.00
2023-04-20T03:06:16.072Z,858.00
2023-04-20T03:07:16.758Z,843.00
2023-04-20T03:08:16.186Z,832.00
2023-04-20T03:09:16.604Z,846.00
2023-04-20T03:10:16.289Z,835.00
2023-04-20T03:11:16.410Z,838.00
2023-04-20T03:12:16.474Z,829.00
2023-04-20T03:13:16.483Z,827.00
2023-04-20T03:14:16.528Z,828.00
2023-04-20T03:15:16.596Z,834.00
2023-04-20T03:16:16.726Z,819.00
2023-04-20T03:17:16.778Z,818.00
2023-04-20T03:18:16.827Z,815.00
2023-04-20T03:19:17.095Z,822.00
2023-04-20T03:20:16.888Z,807.00
2023-04-20T03:21:16.967Z,803.00
2023-04-20T03:22:16.981Z,813.00
2023-04-20T03:23:17.047Z,802.00
2023-04-20T03:24:17.095Z,813.00
2023-04-20T03:25:17.186Z,804.00
2023-04-20T03:26:17.231Z,808.00
2023-04-20T03:27:17.241Z,795.00
2023-04-20T03:28:17.328Z,807.00
2023-04-20T03:29:17.546Z,800.00
2023-04-20T03:30:17.413Z,799.00
2023-04-20T03:31:17.544Z,808.00
2023-04-20T03:32:17.567Z,793.00
2023-04-20T03:33:17.603Z,792.00
2023-04-20T03:34:17.645Z,789.00
2023-04-20T03:35:17.770Z,799.00
2023-04-20T03:36:17.732Z,796.00
2023-04-20T03:37:17.788Z,787.00
2023-04-20T03:38:17.841Z,777.00
2023-04-20T03:39:18.228Z,776.00
2023-04-20T03:40:17.926Z,786.00
2023-04-20T03:41:17.998Z,787.00
2023-04-20T03:42:18.035Z,787.00
2023-04-20T03:43:18.087Z,784.00
2023-04-20T03:44:18.124Z,793.00
2023-04-20T03:45:18.182Z,784.00
2023-04-20T03:46:18.392Z,763.00
2023-04-20T03:47:18.279Z,768.00
2023-04-20T03:48:18.273Z,769.00
2023-04-20T03:49:18.432Z,762.00
2023-04-20T03:50:18.408Z,777.00
2023-04-20T03:51:18.436Z,752.00
2023-04-20T03:52:18.439Z,762.00
2023-04-20T03:53:18.634Z,751.00
2023-04-20T03:54:18.530Z,759.00
2023-04-20T03:55:18.578Z,760.00
2023-04-20T03:56:18.641Z,741.00
2023-04-20T03:57:18.675Z,758.00
2023-04-20T03:58:18.690Z,756.00
2023-04-20T03:59:18.864Z,750.00
2023-04-20T04:00:18.763Z,752.00
2023-04-20T04:01:18.818Z,744.00
2023-04-20T04:02:18.960Z,741.00
2023-04-20T04:03:19.059Z,741.00
2023-04-20T04:04:19.145Z,754.00
2023-04-20T04:05:19.014Z,741.00
2023-04-20T04:06:19.011Z,744.00
2023-04-20T04:07:19.016Z,748.00
2023-04-20T04:08:19.036Z,742.00
2023-04-20T04:09:19.326Z,747.00
2023-04-20T04:10:19.150Z,734.00
2023-04-20T04:11:19.231Z,731.00
2023-04-20T04:12:19.183Z,743.00
2023-04-20T04:13:19.247Z,735.00
2023-04-20T04:14:19.272Z,733.00
2023-04-20T04:15:19.324Z,733.00
2023-04-20T04:16:19.449Z,724.00
2023-04-20T04:17:19.366Z,718.00
2023-04-20T04:18:19.393Z,723.00
2023-04-20T04:19:19.590Z,733.00
2023-04-20T04:20:19.500Z,722.00
2023-04-20T04:21:19.504Z,708.00
2023-04-20T04:22:19.585Z,728.00
2023-04-20T04:23:19.584Z,724.00
2023-04-20T04:24:19.618Z,705.00
2023-04-20T04:25:19.671Z,714.00
2023-04-20T04:26:19.688Z,722.00
2023-04-20T04:27:19.692Z,715.00
2023-04-20T04:28:19.755Z,726.00
2023-04-20T04:29:19.916Z,719.00
2023-04-20T04:30:19.825Z,708.00
2023-04-20T04:31:19.855Z,712.00
2023-04-20T04:32:19.881Z,700.00
2023-04-20T04:33:19.848Z,717.00
2023-04-20T04:34:19.891Z,693.00
2023-04-20T04:35:19.963Z,710.00
2023-04-20T04:36:19.955Z,705.00
2023-04-20T04:37:19.985Z,714.00
2023-04-20T04:38:20.022Z,701.00
2023-04-20T04:39:20.047Z,713.00
2023-04-20T04:40:20.079Z,718.00
2023-04-20T04:41:20.078Z,706.00
2023-04-20T04:42:20.106Z,714.00
2023-04-20T04:43:20.160Z,702.00
2023-04-20T04:44:20.189Z,696.00
2023-04-20T04:45:20.241Z,714.00
2023-04-20T04:46:20.280Z,696.00
2023-04-20T04:47:20.262Z,700.00
2023-04-20T04:48:20.319Z,704.00
2023-04-20T04:49:20.672Z,701.00
2023-04-20T04:50:20.420Z,696.00
2023-04-20T04:51:20.390Z,699.00
2023-04-20T04:52:20.432Z,710.00
2023-04-20T04:53:20.436Z,696.00
2023-04-20T04:54:20.478Z,693.00
2023-04-20T04:55:20.482Z,695.00
2023-04-20T04:56:20.550Z,704.00
2023-04-20T04:57:20.566Z,680.00
2023-04-20T04:58:20.617Z,694.00
2023-04-20T04:59:20.640Z,700.00
2023-04-20T05:00:20.660Z,693.00
2023-04-20T05:01:27.733Z,689.00
2023-04-20T05:02:20.922Z,691.00
2023-04-20T05:03:20.854Z,694.00
2023-04-20T05:04:20.883Z,700.00
2023-04-20T05:05:20.715Z,712.00
2023-04-20T05:06:20.681Z,690.00
2023-04-20T05:07:20.707Z,696.00
2023-04-20T05:08:20.702Z,719.00
2023-04-20T05:09:20.867Z,704.00
2023-04-20T05:10:20.712Z,708.00
2023-04-20T05:11:20.686Z,699.00
2023-04-20T05:12:20.642Z,706.00
2023-04-20T05:13:20.680Z,683.00
2023-04-20T05:14:20.624Z,695.00
2023-04-20T05:15:20.645Z,686.00
2023-04-20T05:16:20.706Z,690.00
2023-04-20T05:17:20.662Z,685.00
2023-04-20T05:18:20.628Z,685.00
2023-04-20T05:19:20.611Z,676.00
2023-04-20T05:20:20.620Z,688.00
2023-04-20T05:21:20.614Z,680.00
2023-04-20T05:22:20.679Z,683.00
2023-04-20T05:23:20.618Z,674.00
2023-04-20T05:24:20.585Z,694.00
2023-04-20T05:25:20.587Z,684.00
2023-04-20T05:26:20.597Z,678.00
2023-04-20T05:27:20.590Z,674.00
2023-04-20T05:28:20.567Z,670.00
2023-04-20T05:29:20.561Z,666.00
2023-04-20T05:30:22.119Z,660.00
2023-04-20T05:31:20.559Z,682.00
2023-04-20T05:32:20.788Z,675.00
2023-04-20T05:33:20.665Z,665.00
2023-04-20T05:34:20.710Z,661.00
2023-04-20T05:35:20.861Z,682.00
2023-04-20T05:36:20.790Z,639.00
2023-04-20T05:37:21.241Z,582.00
2023-04-20T05:38:20.937Z,484.00
2023-04-20T05:39:21.064Z,497.00
2023-04-20T05:40:21.006Z,500.00
2023-04-20T05:41:21.024Z,500.00
2023-04-20T05:42:21.256Z,500.00
2023-04-20T05:43:21.049Z,500.00
2023-04-20T05:44:21.082Z,506.00
2023-04-20T05:45:21.106Z,500.00
2023-04-20T05:46:28.261Z,497.00
2023-04-20T05:47:21.319Z,475.00
2023-04-20T05:48:21.222Z,484.00
2023-04-20T05:49:21.292Z,505.00
2023-04-20T05:50:21.291Z,516.00
2023-04-20T05:51:21.307Z,569.00
2023-04-20T05:52:21.290Z,775.00
2023-04-20T05:53:21.300Z,1056.00
2023-04-20T05:54:21.326Z,1417.00
2023-04-20T05:55:22.550Z,2437.00
2023-04-20T05:56:22.334Z,2681.00
2023-04-20T05:57:21.339Z,3024.00
2023-04-20T05:58:21.387Z,3473.00
2023-04-20T05:59:21.322Z,3568.00
2023-04-20T06:00:22.554Z,3605.00
2023-04-20T06:01:21.317Z,3015.00
2023-04-20T06:02:21.404Z,2847.00
2023-04-20T06:03:21.440Z,2555.00
2023-04-20T06:04:21.382Z,2548.00
2023-04-20T06:05:21.342Z,2651.00
2023-04-20T06:06:21.300Z,3044.00
2023-04-20T06:07:21.307Z,2871.00
2023-04-20T06:08:21.559Z,2835.00
2023-04-20T06:09:21.262Z,3106.00
2023-04-20T06:10:21.248Z,3080.00
2023-04-20T06:11:21.294Z,3168.00
2023-04-20T06:12:21.231Z,3170.00
2023-04-20T06:13:21.761Z,3184.00
2023-04-20T06:14:22.327Z,3202.00
2023-04-20T06:15:21.923Z,3189.00
2023-04-20T06:16:21.262Z,3048.00
2023-04-20T06:17:21.295Z,3431.00
2023-04-20T06:18:21.183Z,3668.00
2023-04-20T06:19:21.150Z,3959.00
2023-04-20T06:20:21.194Z,3894.00
2023-04-20T06:21:21.161Z,3481.00
2023-04-20T06:22:21.214Z,3230.00
2023-04-20T06:23:21.349Z,3513.00
2023-04-20T06:24:21.146Z,3864.00
2023-04-20T06:25:21.115Z,3656.00
2023-04-20T06:26:21.092Z,3546.00
2023-04-20T06:27:21.036Z,3373.00
2023-04-20T06:28:21.119Z,3221.00
2023-04-20T06:29:21.816Z,3161.00
2023-04-20T06:30:21.064Z,3292.00
2023-04-20T06:31:20.913Z,3446.00
2023-04-20T06:32:20.956Z,3415.00
2023-04-20T06:33:20.896Z,3307.00
2023-04-20T06:34:20.901Z,3289.00
2023-04-20T06:35:20.827Z,3174.00
2023-04-20T06:36:20.814Z,3332.00
2023-04-20T06:37:20.824Z,3173.00
2023-04-20T06:38:20.756Z,3069.00
2023-04-20T06:39:20.766Z,2828.00
2023-04-20T06:40:20.744Z,2638.00
2023-04-20T06:41:20.737Z,2588.00
2023-04-20T06:42:20.688Z,2642.00
2023-04-20T06:43:20.691Z,2393.00
2023-04-20T06:44:20.662Z,2147.00
2023-04-20T06:45:20.714Z,2029.00
2023-04-20T06:46:20.709Z,2293.00
2023-04-20T06:47:20.658Z,2253.00
2023-04-20T06:48:31.339Z,2512.00
2023-04-20T06:49:21.587Z,2517.00
2023-04-20T06:50:20.600Z,2531.00
2023-04-20T06:51:20.554Z,2532.00
2023-04-20T06:52:20.542Z,2373.00
2023-04-20T06:53:20.507Z,2439.00
2023-04-20T06:54:20.524Z,2362.00
2023-04-20T06:55:20.475Z,2320.00
2023-04-20T06:56:20.483Z,2327.00
2023-04-20T06:57:20.433Z,2267.00
2023-04-20T06:58:20.856Z,2283.00
2023-04-20T06:59:20.656Z,2310.00
2023-04-20T07:00:20.396Z,2279.00
2023-04-20T07:01:20.435Z,2246.00
2023-04-20T07:02:20.417Z,2208.00
2023-04-20T07:03:20.517Z,2224.00
2023-04-20T07:04:20.379Z,2269.00
2023-04-20T07:05:20.305Z,2237.00
2023-04-20T07:06:20.302Z,2151.00
2023-04-20T07:07:20.310Z,2142.00
2023-04-20T07:08:20.296Z,2130.00
2023-04-20T07:09:20.293Z,2128.00
2023-04-20T07:10:20.278Z,2109.00
2023-04-20T07:11:20.277Z,2083.00
2023-04-20T07:12:20.327Z,2108.00
2023-04-20T07:13:20.291Z,2165.00
2023-04-20T07:14:20.306Z,2140.00
2023-04-20T07:15:20.315Z,2157.00
2023-04-20T07:16:20.341Z,2173.00
2023-04-20T07:17:20.336Z,2179.00
2023-04-20T07:18:20.386Z,2187.00
2023-04-20T07:19:20.390Z,2242.00
2023-04-20T07:20:20.412Z,2130.00
2023-04-20T07:21:20.454Z,2321.00
2023-04-20T07:22:20.519Z,2385.00
2023-04-20T07:23:20.536Z,2075.00
2023-04-20T07:24:20.555Z,1919.00
2023-04-20T07:25:20.463Z,1948.00
2023-04-20T07:26:20.462Z,1902.00
2023-04-20T07:27:20.473Z,1881.00
2023-04-20T07:28:20.492Z,1811.00
2023-04-20T07:29:20.696Z,1629.00
2023-04-20T07:30:20.455Z,1582.00
2023-04-20T07:31:20.518Z,1382.00
2023-04-20T07:32:20.553Z,1204.00
2023-04-20T07:33:20.835Z,1250.00
2023-04-20T07:34:20.719Z,867.00
2023-04-20T07:35:20.588Z,645.00
2023-04-20T07:36:20.649Z,519.00
2023-04-20T07:37:20.666Z,506.00
2023-04-20T07:38:20.866Z,523.00
2023-04-20T07:39:20.743Z,564.00
2023-04-20T07:40:20.799Z,646.00
2023-04-20T07:41:20.862Z,734.00
2023-04-20T07:42:20.884Z,1217.00
2023-04-20T07:43:20.995Z,1580.00
2023-04-20T07:44:21.276Z,2185.00
2023-04-20T07:45:21.098Z,1640.00
2023-04-20T07:46:21.110Z,2023.00
2023-04-20T07:47:21.194Z,2214.00
2023-04-20T07:48:21.515Z,2094.00
2023-04-20T07:49:21.154Z,1788.00
2023-04-20T07:50:21.216Z,1837.00
2023-04-20T07:51:21.231Z,2119.00
2023-04-20T07:52:21.263Z,2752.00
2023-04-20T07:53:21.282Z,2670.00
2023-04-20T07:54:21.280Z,2374.00
2023-04-20T07:55:21.305Z,2705.00
2023-04-20T07:56:21.309Z,2646.00
2023-04-20T07:57:21.284Z,2710.00
2023-04-20T07:58:21.306Z,2948.00
2023-04-20T07:59:21.314Z,2963.00
2023-04-20T08:00:21.308Z,3051.00
2023-04-20T08:01:21.302Z,3158.00
2023-04-20T08:02:21.403Z,2798.00
2023-04-20T08:03:21.592Z,2557.00
2023-04-20T08:04:21.336Z,2647.00
2023-04-20T08:05:21.370Z,2307.00
2023-04-20T08:06:21.238Z,2217.00
2023-04-20T08:07:21.237Z,2376.00
2023-04-20T08:08:21.287Z,2403.00
2023-04-20T08:09:21.287Z,2195.00
2023-04-20T08:10:21.318Z,2129.00
2023-04-20T08:11:21.347Z,2138.00
2023-04-20T08:12:22.380Z,2277.00
2023-04-20T08:13:21.379Z,2196.00
2023-04-20T08:14:21.513Z,2169.00
2023-04-20T08:15:21.348Z,2146.00
2023-04-20T08:16:21.412Z,2123.00
2023-04-20T08:17:21.605Z,2120.00
2023-04-20T08:18:21.886Z,2052.00
2023-04-20T08:19:21.557Z,2147.00
2023-04-20T08:20:21.582Z,2148.00
2023-04-20T08:21:23.943Z,2157.00
2023-04-20T08:22:21.651Z,2116.00
2023-04-20T08:23:21.586Z,2129.00
2023-04-20T08:24:21.565Z,2348.00
2023-04-20T08:25:21.545Z,2325.00
2023-04-20T08:26:21.451Z,2254.00
2023-04-20T08:27:21.464Z,2259.00
2023-04-20T08:28:32.957Z,2296.00
2023-04-20T08:29:22.365Z,2298.00
2023-04-20T08:30:21.610Z,2303.00
2023-04-20T08:31:21.348Z,2254.00
2023-04-20T08:32:21.272Z,2159.00
2023-04-20T08:33:21.652Z,2134.00
2023-04-20T08:34:21.243Z,2037.00
2023-04-20T08:35:21.247Z,1936.00
2023-04-20T08:36:21.186Z,1788.00
2023-04-20T08:37:21.187Z,1745.00
2023-04-20T08:38:27.103Z,1701.00
2023-04-20T08:39:22.399Z,1646.00
2023-04-20T08:40:21.192Z,1569.00
2023-04-20T08:41:21.102Z,1504.00
2023-04-20T08:42:21.111Z,1500.00
2023-04-20T08:43:22.000Z,1378.00
2023-04-20T08:44:21.054Z,1251.00
2023-04-20T08:45:21.064Z,1264.00
2023-04-20T08:46:21.044Z,1190.00
2023-04-20T08:47:21.096Z,1156.00
2023-04-20T08:48:21.104Z,1173.00
2023-04-20T08:49:20.928Z,1183.00
2023-04-20T08:50:20.942Z,1084.00
2023-04-20T08:51:20.941Z,1050.00
2023-04-20T08:52:20.865Z,1112.00
2023-04-20T08:53:20.864Z,1058.00
2023-04-20T08:54:21.726Z,1073.00
2023-04-20T08:55:20.814Z,1002.00
2023-04-20T08:56:20.817Z,1020.00
2023-04-20T08:57:20.791Z,968.00
2023-04-20T08:58:20.742Z,989.00
2023-04-20T08:59:20.952Z,923.00
2023-04-20T09:00:20.752Z,876.00
2023-04-20T09:01:28.686Z,874.00
2023-04-20T09:02:21.750Z,874.00
2023-04-20T09:03:20.871Z,875.00
2023-04-20T09:04:21.565Z,716.00
2023-04-20T09:05:20.683Z,645.00
2023-04-20T09:06:23.321Z,576.00
2023-04-20T09:07:20.655Z,1021.00
2023-04-20T09:08:20.645Z,1267.00
2023-04-20T09:09:20.648Z,1033.00
2023-04-20T09:10:20.637Z,1476.00
2023-04-20T09:11:20.601Z,904.00
2023-04-20T09:12:22.763Z,1505.00
2023-04-20T09:13:20.582Z,1271.00
2023-04-20T09:14:20.752Z,1524.00
2023-04-20T09:15:20.623Z,1184.00
2023-04-20T09:16:20.770Z,1332.00
2023-04-20T09:17:20.833Z,2073.00
2023-04-20T09:18:20.771Z,1744.00
2023-04-20T09:19:20.857Z,1518.00
2023-04-20T09:20:20.935Z,1162.00
2023-04-20T09:21:21.012Z,1344.00
2023-04-20T09:22:21.051Z,1373.00
2023-04-20T09:23:21.502Z,998.00
2023-04-20T09:24:21.164Z,927.00
2023-04-20T09:25:21.204Z,787.00
2023-04-20T09:26:21.285Z,779.00
2023-04-20T09:27:21.406Z,857.00
2023-04-20T09:28:21.460Z,773.00
2023-04-20T09:29:21.522Z,1183.00
2023-04-20T09:30:21.582Z,636.00
2023-04-20T09:31:21.625Z,735.00
2023-04-20T09:32:21.758Z,613.00
2023-04-20T09:33:21.710Z,633.00
2023-04-20T09:34:21.879Z,1278.00
2023-04-20T09:35:21.805Z,647.00
2023-04-20T09:36:22.067Z,555.00
2023-04-20T09:37:21.960Z,517.00
2023-04-20T09:38:22.028Z,700.00
2023-04-20T09:39:22.404Z,554.00
2023-04-20T09:40:22.238Z,490.00
2023-04-20T09:41:22.145Z,496.00
2023-04-20T09:42:22.180Z,506.00
2023-04-20T09:43:22.144Z,502.00
2023-04-20T09:44:22.402Z,502.00
2023-04-20T09:45:22.177Z,500.00
2023-04-20T09:46:22.415Z,533.00
2023-04-20T09:47:22.200Z,582.00
2023-04-20T09:48:22.208Z,537.00
2023-04-20T09:49:22.206Z,503.00
2023-04-20T09:50:29.152Z,500.00
2023-04-20T09:51:23.240Z,500.00
2023-04-20T09:52:22.241Z,501.00
2023-04-20T09:53:22.890Z,507.00
2023-04-20T09:54:22.200Z,522.00
2023-04-20T09:55:22.419Z,500.00
2023-04-20T09:56:22.232Z,511.00
2023-04-20T09:57:22.215Z,504.00
2023-04-20T09:58:22.225Z,501.00
2023-04-20T09:59:22.222Z,506.00
2023-04-20T10:00:22.437Z,521.00
2023-04-20T10:01:22.341Z,545.00
2023-04-20T10:02:22.441Z,543.00
2023-04-20T10:03:22.458Z,521.00
2023-04-20T10:04:23.442Z,499.00
2023-04-20T10:05:22.524Z,504.00
2023-04-20T10:06:22.531Z,509.00
2023-04-20T10:07:22.641Z,509.00
2023-04-20T10:08:22.672Z,532.00
2023-04-20T10:09:22.731Z,541.00
2023-04-20T10:10:22.752Z,539.00
2023-04-20T10:11:22.804Z,531.00
2023-04-20T10:12:22.863Z,544.00
2023-04-20T10:13:22.889Z,530.00
2023-04-20T10:14:22.919Z,520.00
2023-04-20T10:15:22.950Z,512.00
2023-04-20T10:16:23.125Z,488.00
2023-04-20T10:17:23.099Z,449.00
2023-04-20T10:18:23.370Z,503.00
2023-04-20T10:19:23.027Z,507.00
2023-04-20T10:20:23.059Z,542.00
2023-04-20T10:21:23.042Z,559.00
2023-04-20T10:22:23.143Z,634.00
2023-04-20T10:23:23.903Z,665.00
2023-04-20T10:24:23.588Z,1034.00
2023-04-20T10:25:23.246Z,1174.00
2023-04-20T10:26:23.344Z,1226.00
2023-04-20T10:27:23.356Z,1187.00
2023-04-20T10:28:23.382Z,1220.00
2023-04-20T10:29:23.484Z,1187.00
2023-04-20T10:30:23.963Z,1224.00
2023-04-20T10:31:23.602Z,1205.00
2023-04-20T10:32:23.625Z,1128.00
2023-04-20T10:33:24.165Z,1087.00
2023-04-20T10:34:23.614Z,1096.00
2023-04-20T10:35:23.632Z,1040.00
2023-04-20T10:36:23.694Z,952.00
2023-04-20T10:37:23.670Z,891.00
2023-04-20T10:38:23.706Z,888.00
2023-04-20T10:39:24.064Z,842.00
2023-04-20T10:40:24.141Z,779.00
2023-04-20T10:41:23.828Z,881.00
2023-04-20T10:42:23.965Z,1060.00
2023-04-20T10:43:23.954Z,1136.00
2023-04-20T10:44:24.023Z,1122.00
2023-04-20T10:45:24.480Z,1206.00
2023-04-20T10:46:24.221Z,1281.00
2023-04-20T10:47:24.153Z,1335.00
2023-04-20T10:48:24.141Z,1355.00
2023-04-20T10:49:24.152Z,1387.00
2023-04-20T10:50:24.155Z,1417.00
2023-04-20T10:51:24.137Z,1418.00
2023-04-20T10:52:24.149Z,1420.00
2023-04-20T10:53:24.129Z,1462.00
2023-04-20T10:54:24.157Z,1497.00
2023-04-20T10:55:24.498Z,1510.00
2023-04-20T10:56:24.260Z,1531.00
2023-04-20T10:57:24.167Z,1551.00
2023-04-20T10:58:24.161Z,1563.00
2023-04-20T10:59:24.164Z,1562.00
2023-04-20T11:00:24.157Z,1565.00
2023-04-20T11:01:24.150Z,1607.00
2023-04-20T11:02:24.264Z,1590.00
2023-04-20T11:03:24.246Z,1609.00
2023-04-20T11:04:24.180Z,1619.00
2023-04-20T11:05:24.292Z,1613.00
2023-04-20T11:06:24.132Z,1622.00
2023-04-20T11:07:24.118Z,1643.00
2023-04-20T11:08:24.173Z,1645.00
2023-04-20T11:09:24.206Z,1638.00
2023-04-20T11:10:24.445Z,1679.00
2023-04-20T11:11:24.105Z,1665.00
2023-04-20T11:12:24.111Z,1659.00
2023-04-20T11:13:24.062Z,1682.00
2023-04-20T11:14:24.126Z,1684.00
2023-04-20T11:15:24.094Z,1681.00
2023-04-20T11:16:30.429Z,1663.00
2023-04-20T11:17:25.131Z,1664.00
2023-04-20T11:18:24.083Z,1669.00
2023-04-20T11:19:24.034Z,1678.00
2023-04-20T11:20:23.987Z,1680.00
2023-04-20T11:21:24.484Z,1708.00
2023-04-20T11:22:24.002Z,1701.00
2023-04-20T11:23:23.999Z,1709.00
2023-04-20T11:24:23.949Z,1697.00
2023-04-20T11:25:23.971Z,1684.00
2023-04-20T11:26:24.495Z,1674.00
2023-04-20T11:27:23.973Z,1699.00
2023-04-20T11:28:24.058Z,1713.00
2023-04-20T11:29:23.943Z,1708.00
2023-04-20T11:30:23.890Z,1693.00
2023-04-20T11:31:24.160Z,1701.00
2023-04-20T11:32:23.986Z,1685.00
2023-04-20T11:33:23.987Z,1682.00
2023-04-20T11:34:23.865Z,1695.00
2023-04-20T11:35:23.820Z,1697.00
2023-04-20T11:36:23.999Z,1671.00
2023-04-20T11:37:23.809Z,1662.00
2023-04-20T11:38:23.776Z,1681.00
2023-04-20T11:39:23.783Z,1689.00
2023-04-20T11:40:23.759Z,1690.00
2023-04-20T11:41:23.733Z,1701.00
2023-04-20T11:42:23.734Z,1686.00
2023-04-20T11:43:23.718Z,1690.00
2023-04-20T11:44:23.709Z,1689.00
2023-04-20T11:45:23.698Z,1670.00
2023-04-20T11:46:23.715Z,1684.00
2023-04-20T11:47:23.763Z,1684.00
2023-04-20T11:48:23.675Z,1682.00
2023-04-20T11:49:23.634Z,1689.00
2023-04-20T11:50:23.645Z,1687.00
2023-04-20T11:51:23.995Z,1676.00
2023-04-20T11:52:23.604Z,1684.00
2023-04-20T11:53:23.598Z,1689.00
2023-04-20T11:54:23.647Z,1691.00
2023-04-20T11:55:23.625Z,1686.00
2023-04-20T11:56:23.553Z,1684.00
2023-04-20T11:57:23.546Z,1676.00
2023-04-20T11:58:23.531Z,1698.00
2023-04-20T11:59:23.525Z,1690.00
2023-04-20T12:00:23.485Z,1687.00
2023-04-20T12:01:23.522Z,1676.00
2023-04-20T12:02:23.661Z,1699.00
2023-04-20T12:03:23.601Z,1676.00
2023-04-20T12:04:23.635Z,1682.00
2023-04-20T12:05:23.475Z,1681.00
2023-04-20T12:06:23.472Z,1673.00
2023-04-20T12:07:23.408Z,1693.00
2023-04-20T12:08:23.418Z,1689.00
2023-04-20T12:09:23.435Z,1668.00
2023-04-20T12:10:23.417Z,1678.00
2023-04-20T12:11:23.423Z,1685.00
2023-04-20T12:12:23.423Z,1679.00
2023-04-20T12:13:23.388Z,1664.00
2023-04-20T12:14:23.411Z,1685.00